Terminal Aerodrome Forecast
Issued by NWS

Home | Current Version | Previous Version | Text Only | Print | Product List | Glossary On
Versions: 1 2 3 4 5 6 7 8 9 10 11 12 13 14 15 16 17 18
000
FTUS45 KABQ 180200 AAB
TAFSAF
TAF AMD
KSAF 180217Z 1802/1824 24008KT 3SM BR OVC006
      TEMPO 1802/1806 1/4SM FG VV001
     FM180600 30006KT 5SM BR OVC012
     FM181100 34007KT 5SM BR BKN025
      TEMPO 1811/1815 1SM BR OVC008
     FM181500 35011KT P6SM BKN035
     FM182000 30009KT P6SM VCSH BKN050=

USA.gov is the U.S. government's official web portal to all federal, state and local government web resources and services.